createdAt,value
2023-12-23T00:00:14.631Z,6.80
2023-12-23T00:02:41.738Z,6.70
2023-12-23T00:05:09.475Z,6.70
2023-12-23T00:07:37.218Z,6.80
2023-12-23T00:10:04.746Z,6.70
2023-12-23T00:12:32.159Z,6.80
2023-12-23T00:14:59.234Z,6.80
2023-12-23T00:17:26.560Z,6.80
2023-12-23T00:19:53.851Z,6.80
2023-12-23T00:22:20.948Z,6.80
2023-12-23T00:24:48.032Z,6.80
2023-12-23T00:27:15.361Z,6.80
2023-12-23T00:29:42.476Z,6.70
2023-12-23T00:32:09.566Z,6.70
2023-12-23T00:34:36.674Z,6.70
2023-12-23T00:37:03.825Z,6.70
2023-12-23T00:39:30.976Z,6.70
2023-12-23T00:41:57.994Z,6.60
2023-12-23T00:44:25.194Z,6.60
2023-12-23T00:46:52.229Z,6.60
2023-12-23T00:49:19.387Z,6.60
2023-12-23T00:51:46.499Z,6.60
2023-12-23T00:54:13.558Z,6.60
2023-12-23T00:56:40.610Z,6.70
2023-12-23T00:59:07.659Z,6.70
2023-12-23T01:01:34.804Z,6.80
2023-12-23T01:04:02.065Z,6.80
2023-12-23T01:06:29.144Z,6.80
2023-12-23T01:08:56.205Z,6.80
2023-12-23T01:11:23.361Z,6.80
2023-12-23T01:13:50.539Z,6.90
2023-12-23T01:16:17.734Z,6.90
2023-12-23T01:18:44.891Z,6.90
2023-12-23T01:21:12.102Z,6.90
2023-12-23T01:23:39.156Z,6.90
2023-12-23T01:26:06.272Z,6.90
2023-12-23T01:28:33.345Z,6.90
2023-12-23T01:31:00.504Z,6.90
2023-12-23T01:33:27.672Z,7.00
2023-12-23T01:35:54.831Z,7.00
2023-12-23T01:38:21.988Z,7.00
2023-12-23T01:40:49.260Z,7.10
2023-12-23T01:43:16.328Z,7.10
2023-12-23T01:45:43.392Z,7.10
2023-12-23T01:48:12.405Z,7.10
2023-12-23T01:50:41.279Z,7.10
2023-12-23T01:53:08.973Z,7.10
2023-12-23T01:55:36.194Z,7.10
2023-12-23T01:58:03.385Z,7.10
2023-12-23T02:00:31.033Z,7.10
2023-12-23T02:02:58.678Z,7.10
2023-12-23T02:05:25.956Z,7.10
2023-12-23T02:07:54.296Z,7.00
2023-12-23T02:10:22.066Z,7.00
2023-12-23T02:13:23.237Z,7.10
2023-12-23T02:15:52.329Z,7.10
2023-12-23T02:18:20.998Z,7.10
2023-12-23T02:20:49.840Z,7.00
2023-12-23T02:23:17.862Z,7.00
2023-12-23T02:25:55.201Z,7.00
2023-12-23T02:28:23.895Z,6.90
2023-12-23T02:30:52.695Z,6.90
2023-12-23T02:33:20.506Z,6.90
2023-12-23T02:35:53.898Z,6.80
2023-12-23T02:38:22.958Z,6.80
2023-12-23T02:40:50.435Z,6.70
2023-12-23T02:43:17.963Z,6.70
2023-12-23T02:45:45.148Z,6.70
2023-12-23T02:48:12.402Z,6.70
2023-12-23T02:50:39.601Z,6.70
2023-12-23T02:53:09.551Z,6.70
2023-12-23T02:55:38.112Z,6.70
2023-12-23T02:58:05.487Z,6.70
2023-12-23T03:00:32.568Z,6.60
2023-12-23T03:02:59.749Z,6.60
2023-12-23T03:05:27.120Z,6.60
2023-12-23T03:07:54.325Z,6.60
2023-12-23T03:10:21.500Z,6.60
2023-12-23T03:12:49.025Z,6.60
2023-12-23T03:15:16.466Z,6.60
2023-12-23T03:17:43.578Z,6.60
2023-12-23T03:20:11.139Z,6.60
2023-12-23T03:22:38.680Z,6.60
2023-12-23T03:25:06.328Z,6.50
2023-12-23T03:27:33.371Z,6.50
2023-12-23T03:30:00.495Z,6.50
2023-12-23T03:32:27.682Z,6.50
2023-12-23T03:34:54.819Z,6.50
2023-12-23T03:37:21.930Z,6.50
2023-12-23T03:39:49.003Z,6.50
2023-12-23T03:42:16.129Z,6.50
2023-12-23T03:44:43.218Z,6.50
2023-12-23T03:47:10.650Z,6.50
2023-12-23T03:49:38.436Z,6.50
2023-12-23T03:52:05.573Z,6.50
2023-12-23T03:54:32.701Z,6.40
2023-12-23T03:56:59.784Z,6.40
2023-12-23T03:59:26.988Z,6.40
2023-12-23T04:01:54.231Z,6.40
2023-12-23T04:04:21.681Z,6.50
2023-12-23T04:06:48.814Z,6.50
2023-12-23T04:09:19.160Z,6.50
2023-12-23T04:11:46.239Z,6.50
2023-12-23T04:14:13.479Z,6.50
2023-12-23T04:16:40.890Z,6.50
2023-12-23T04:19:08.034Z,6.50
2023-12-23T04:21:35.115Z,6.50
2023-12-23T04:24:02.175Z,6.50
2023-12-23T04:26:30.466Z,6.50
2023-12-23T04:28:57.482Z,6.50
2023-12-23T04:31:24.763Z,6.50
2023-12-23T04:33:52.109Z,6.50
2023-12-23T04:36:19.452Z,6.40
2023-12-23T04:38:46.503Z,6.50
2023-12-23T04:41:13.585Z,6.50
2023-12-23T04:43:40.875Z,6.50
2023-12-23T04:46:08.285Z,6.50
2023-12-23T04:48:35.378Z,6.40
2023-12-23T04:51:02.465Z,6.40
2023-12-23T04:53:29.705Z,6.40
2023-12-23T04:55:56.942Z,6.40
2023-12-23T04:58:23.973Z,6.40
2023-12-23T05:00:51.223Z,6.40
2023-12-23T05:03:18.281Z,6.40
2023-12-23T05:05:45.631Z,6.40
2023-12-23T05:08:17.866Z,6.40
2023-12-23T05:10:45.496Z,6.40
2023-12-23T05:13:12.606Z,6.40
2023-12-23T05:15:40.374Z,6.40
2023-12-23T05:18:07.546Z,6.40
2023-12-23T05:20:34.771Z,6.40
2023-12-23T05:23:01.896Z,6.40
2023-12-23T05:25:29.114Z,6.40
2023-12-23T05:27:56.221Z,6.40
2023-12-23T05:30:23.424Z,6.40
2023-12-23T05:32:50.960Z,6.40
2023-12-23T05:35:18.817Z,6.40
2023-12-23T05:37:46.290Z,6.40
2023-12-23T05:40:13.696Z,6.40
2023-12-23T05:42:40.816Z,6.40
2023-12-23T05:45:08.407Z,6.40
2023-12-23T05:47:35.575Z,6.40
2023-12-23T05:50:02.941Z,6.40
2023-12-23T05:52:30.037Z,6.30
2023-12-23T05:54:57.681Z,6.30
2023-12-23T05:57:24.754Z,6.30
2023-12-23T05:59:51.898Z,6.30
2023-12-23T06:02:19.125Z,6.30
2023-12-23T06:04:46.255Z,6.30
2023-12-23T06:07:14.042Z,6.30
2023-12-23T06:09:41.055Z,6.40
2023-12-23T06:12:08.651Z,6.30
2023-12-23T06:14:37.591Z,6.30
2023-12-23T06:17:04.862Z,6.30
2023-12-23T06:19:31.905Z,6.30
2023-12-23T06:21:58.992Z,6.30
2023-12-23T06:24:26.209Z,6.30
2023-12-23T06:26:53.401Z,6.30
2023-12-23T06:29:20.516Z,6.30
2023-12-23T06:31:47.649Z,6.30
2023-12-23T06:34:14.885Z,6.30
2023-12-23T06:36:42.051Z,6.30
2023-12-23T06:39:09.098Z,6.30
2023-12-23T06:41:36.122Z,6.30
2023-12-23T06:44:03.509Z,6.30
2023-12-23T06:46:30.676Z,6.30
2023-12-23T06:48:57.941Z,6.30
2023-12-23T06:51:25.184Z,6.30
2023-12-23T06:53:52.203Z,6.30
2023-12-23T06:56:20.498Z,6.30
2023-12-23T06:58:47.635Z,6.30
2023-12-23T07:01:15.001Z,6.30
2023-12-23T07:03:43.498Z,6.30
2023-12-23T07:06:14.201Z,6.30
2023-12-23T07:08:41.615Z,6.30
2023-12-23T07:11:10.597Z,6.30
2023-12-23T07:13:37.594Z,6.30
2023-12-23T07:16:05.598Z,6.30
2023-12-23T07:18:32.688Z,6.30
2023-12-23T07:21:01.795Z,6.30
2023-12-23T07:23:29.158Z,6.30
2023-12-23T07:25:56.324Z,6.30
2023-12-23T07:28:23.419Z,6.30
2023-12-23T07:30:50.860Z,6.30
2023-12-23T07:33:18.340Z,6.30
2023-12-23T07:35:45.569Z,6.30
2023-12-23T07:38:12.845Z,6.40
2023-12-23T07:40:40.836Z,6.40
2023-12-23T07:43:08.604Z,6.40
2023-12-23T07:45:35.774Z,6.40
2023-12-23T07:48:03.550Z,6.40
2023-12-23T07:50:31.065Z,6.40
2023-12-23T07:52:58.215Z,6.40
2023-12-23T07:55:27.724Z,6.40
2023-12-23T07:57:54.788Z,6.40
2023-12-23T08:00:22.072Z,6.40
2023-12-23T08:02:49.440Z,6.40
2023-12-23T08:05:17.489Z,6.40
2023-12-23T08:07:44.973Z,6.50
2023-12-23T08:10:12.194Z,6.40
2023-12-23T08:12:39.355Z,6.40
2023-12-23T08:15:06.970Z,6.40
2023-12-23T08:17:34.302Z,6.40
2023-12-23T08:20:02.077Z,6.50
2023-12-23T08:22:29.375Z,6.40
2023-12-23T08:24:56.575Z,6.50
2023-12-23T08:27:23.855Z,6.50
2023-12-23T08:29:50.929Z,6.40
2023-12-23T08:32:18.129Z,6.40
2023-12-23T08:34:48.283Z,6.50
2023-12-23T08:37:15.612Z,6.40
2023-12-23T08:39:42.715Z,6.40
2023-12-23T08:42:09.862Z,6.40
2023-12-23T08:44:37.005Z,6.40
2023-12-23T08:47:04.197Z,6.50
2023-12-23T08:49:31.774Z,6.50
2023-12-23T08:51:58.938Z,6.40
2023-12-23T08:54:26.037Z,6.50
2023-12-23T08:56:53.145Z,6.50
2023-12-23T08:59:20.339Z,6.40
2023-12-23T09:01:47.512Z,6.50
2023-12-23T09:04:14.700Z,6.50
2023-12-23T09:06:41.765Z,6.50
2023-12-23T09:09:09.022Z,6.50
2023-12-23T09:11:43.123Z,6.50
2023-12-23T09:14:11.330Z,6.60
2023-12-23T09:16:38.504Z,6.60
2023-12-23T09:19:05.831Z,6.60
2023-12-23T09:21:33.030Z,6.60
2023-12-23T09:24:00.083Z,6.60
2023-12-23T09:26:27.283Z,6.60
2023-12-23T09:28:54.473Z,6.60
2023-12-23T09:31:21.576Z,6.70
2023-12-23T09:33:48.666Z,6.60
2023-12-23T09:36:15.802Z,6.60
2023-12-23T09:38:42.936Z,6.60
2023-12-23T09:41:10.059Z,6.60
2023-12-23T09:43:37.276Z,6.60
2023-12-23T09:46:07.644Z,6.60
2023-12-23T09:48:34.777Z,6.60
2023-12-23T09:51:02.056Z,6.60
2023-12-23T09:53:31.338Z,6.60
2023-12-23T09:55:59.253Z,6.60
2023-12-23T09:58:26.370Z,6.60
2023-12-23T10:00:54.190Z,6.60
2023-12-23T10:03:24.706Z,6.60
2023-12-23T10:05:53.684Z,6.60
2023-12-23T10:08:21.240Z,6.60
2023-12-23T10:10:49.123Z,6.60
2023-12-23T10:13:17.398Z,6.60
2023-12-23T10:15:44.530Z,6.60
2023-12-23T10:18:15.017Z,6.60
2023-12-23T10:20:44.721Z,6.60
2023-12-23T10:23:12.059Z,6.60
2023-12-23T10:25:40.145Z,6.60
2023-12-23T10:28:09.323Z,6.60
2023-12-23T10:30:39.886Z,6.60
2023-12-23T10:33:08.633Z,6.50
2023-12-23T10:35:47.732Z,6.50
2023-12-23T10:38:23.736Z,6.50
2023-12-23T10:41:13.363Z,6.50
2023-12-23T10:43:41.901Z,6.50
2023-12-23T10:46:09.587Z,6.60
2023-12-23T10:48:39.525Z,6.50
2023-12-23T10:51:07.157Z,6.50
2023-12-23T10:53:35.717Z,6.50
2023-12-23T10:56:02.890Z,6.60
2023-12-23T10:58:31.136Z,6.60
2023-12-23T11:01:00.475Z,6.60
2023-12-23T11:03:29.631Z,6.60
2023-12-23T11:05:57.506Z,6.60
2023-12-23T11:08:25.835Z,6.60
2023-12-23T11:10:53.391Z,6.60
2023-12-23T11:13:21.782Z,6.60
2023-12-23T11:15:49.349Z,6.70
2023-12-23T11:18:16.641Z,6.70
2023-12-23T11:20:47.285Z,6.70
2023-12-23T11:23:30.481Z,6.70
2023-12-23T11:25:58.312Z,6.70
2023-12-23T11:28:47.910Z,6.80
2023-12-23T11:31:15.100Z,6.70
2023-12-23T11:33:42.221Z,6.70
2023-12-23T11:36:09.617Z,6.70
2023-12-23T11:38:54.016Z,6.70
2023-12-23T11:41:22.841Z,6.70
2023-12-23T11:43:51.494Z,6.70
2023-12-23T11:46:24.045Z,6.70
2023-12-23T11:48:51.394Z,6.70
2023-12-23T11:51:18.699Z,6.70
2023-12-23T11:53:46.504Z,6.70
2023-12-23T11:56:17.370Z,6.70
2023-12-23T11:58:44.508Z,6.70
2023-12-23T12:01:11.683Z,6.70
2023-12-23T12:03:38.857Z,6.60
2023-12-23T12:06:06.308Z,6.60
2023-12-23T12:08:33.605Z,6.70
2023-12-23T12:11:04.030Z,6.70
2023-12-23T12:13:32.259Z,6.70
2023-12-23T12:15:59.465Z,6.70
2023-12-23T12:18:26.598Z,6.70
2023-12-23T12:20:53.729Z,6.70
2023-12-23T12:23:21.549Z,6.70
2023-12-23T12:25:52.140Z,6.70
2023-12-23T12:28:20.551Z,6.70
2023-12-23T12:30:48.624Z,6.70
2023-12-23T12:33:19.376Z,6.70
2023-12-23T12:35:47.634Z,6.70
2023-12-23T12:38:22.894Z,6.70
2023-12-23T12:40:51.736Z,6.70
2023-12-23T12:43:21.656Z,6.70
2023-12-23T12:45:49.712Z,6.70
2023-12-23T12:48:17.446Z,6.80
2023-12-23T12:50:45.215Z,6.80
2023-12-23T12:53:17.077Z,6.80
2023-12-23T12:55:44.591Z,6.80
2023-12-23T12:58:11.928Z,6.80
2023-12-23T13:00:39.107Z,6.80
2023-12-23T13:03:06.795Z,6.70
2023-12-23T13:05:34.120Z,6.70
2023-12-23T13:08:01.426Z,6.70
2023-12-23T13:10:28.986Z,6.70
2023-12-23T13:12:56.179Z,6.70
2023-12-23T13:15:24.007Z,6.70
2023-12-23T13:17:51.398Z,6.70
2023-12-23T13:20:19.779Z,6.60
2023-12-23T13:22:48.687Z,6.60
2023-12-23T13:25:16.528Z,6.60
2023-12-23T13:27:43.675Z,6.60
2023-12-23T13:30:11.755Z,6.60
2023-12-23T13:32:39.069Z,6.60
2023-12-23T13:35:06.481Z,6.60
2023-12-23T13:37:33.584Z,6.70
2023-12-23T13:40:00.820Z,6.60
2023-12-23T13:42:27.871Z,6.70
2023-12-23T13:44:55.059Z,6.70
2023-12-23T13:47:22.987Z,6.70
2023-12-23T13:49:50.187Z,6.60
2023-12-23T13:52:18.652Z,6.70
2023-12-23T13:54:46.065Z,6.60
2023-12-23T13:57:13.142Z,6.70
2023-12-23T13:59:40.221Z,6.70
2023-12-23T14:02:09.356Z,6.70
2023-12-23T14:04:38.331Z,6.70
2023-12-23T14:07:05.585Z,6.70
2023-12-23T14:09:35.055Z,6.70
2023-12-23T14:12:02.230Z,6.70
2023-12-23T14:14:29.296Z,6.70
2023-12-23T14:16:56.535Z,6.70
2023-12-23T14:19:23.756Z,6.70
2023-12-23T14:21:51.042Z,6.70
2023-12-23T14:24:18.204Z,6.70
2023-12-23T14:26:46.621Z,6.70
2023-12-23T14:29:14.036Z,6.80
2023-12-23T14:31:41.336Z,6.80
2023-12-23T14:34:08.461Z,6.80
2023-12-23T14:36:35.640Z,6.80
2023-12-23T14:39:03.949Z,6.80
2023-12-23T14:41:31.235Z,6.80
2023-12-23T14:43:58.445Z,6.80
2023-12-23T14:46:26.570Z,6.80
2023-12-23T14:48:53.799Z,6.80
2023-12-23T14:51:24.439Z,6.80
2023-12-23T14:53:51.592Z,6.80
2023-12-23T14:56:18.808Z,6.80
2023-12-23T14:58:45.905Z,6.80
2023-12-23T15:01:12.995Z,6.80
2023-12-23T15:03:40.116Z,6.80
2023-12-23T15:06:07.520Z,6.90
2023-12-23T15:08:34.769Z,6.80
2023-12-23T15:11:04.899Z,6.80
2023-12-23T15:13:38.201Z,6.80
2023-12-23T15:16:06.650Z,6.80
2023-12-23T15:18:34.263Z,6.90
2023-12-23T15:21:01.327Z,6.80
2023-12-23T15:23:28.484Z,6.80
2023-12-23T15:25:55.587Z,6.80
2023-12-23T15:28:22.728Z,6.80
2023-12-23T15:30:56.432Z,6.70
2023-12-23T15:33:24.569Z,6.70
2023-12-23T15:35:52.491Z,6.70
2023-12-23T15:38:19.683Z,6.80
2023-12-23T15:40:47.453Z,6.70
2023-12-23T15:43:15.978Z,6.70
2023-12-23T15:45:43.502Z,6.70
2023-12-23T15:48:10.681Z,6.70
2023-12-23T15:50:37.881Z,6.70
2023-12-23T15:53:05.363Z,6.70
2023-12-23T15:55:35.307Z,6.70
2023-12-23T15:58:05.122Z,6.70
2023-12-23T16:00:32.287Z,6.70
2023-12-23T16:03:00.233Z,6.80
2023-12-23T16:05:27.791Z,6.70
2023-12-23T16:07:55.021Z,6.70
2023-12-23T16:10:22.458Z,6.70
2023-12-23T16:12:49.791Z,6.70
2023-12-23T16:15:17.112Z,6.70
2023-12-23T16:17:44.357Z,6.80
2023-12-23T16:20:12.043Z,6.70
2023-12-23T16:22:39.095Z,6.70
2023-12-23T16:25:06.537Z,6.70
2023-12-23T16:27:35.927Z,6.70
2023-12-23T16:30:03.364Z,6.70
2023-12-23T16:32:30.847Z,6.70
2023-12-23T16:34:58.129Z,6.70
2023-12-23T16:37:25.794Z,6.70
2023-12-23T16:39:56.130Z,6.70
2023-12-23T16:42:23.275Z,6.70
2023-12-23T16:44:51.191Z,6.70
2023-12-23T16:47:18.428Z,6.70
2023-12-23T16:49:46.807Z,6.70
2023-12-23T16:52:14.237Z,6.70
2023-12-23T16:54:41.344Z,6.70
2023-12-23T16:57:08.609Z,6.70
2023-12-23T16:59:35.889Z,6.80
2023-12-23T17:02:02.989Z,6.80
2023-12-23T17:04:30.212Z,6.80
2023-12-23T17:06:57.265Z,6.80
2023-12-23T17:09:24.480Z,6.70
2023-12-23T17:11:52.315Z,6.70
2023-12-23T17:14:19.509Z,6.70
2023-12-23T17:16:46.666Z,6.70
2023-12-23T17:19:14.019Z,6.80
2023-12-23T17:21:41.164Z,6.70
2023-12-23T17:24:08.489Z,6.70
2023-12-23T17:26:35.585Z,6.70
2023-12-23T17:29:04.195Z,6.70
2023-12-23T17:31:31.242Z,6.70
2023-12-23T17:33:59.306Z,6.70
2023-12-23T17:36:26.385Z,6.60
2023-12-23T17:38:53.481Z,6.70
2023-12-23T17:41:20.711Z,6.70
2023-12-23T17:43:47.988Z,6.60
2023-12-23T17:46:15.301Z,6.70
2023-12-23T17:48:42.439Z,6.60
2023-12-23T17:51:10.322Z,6.60
2023-12-23T17:53:37.426Z,6.70
2023-12-23T17:56:08.078Z,6.60
2023-12-23T17:58:35.238Z,6.60
2023-12-23T18:01:02.482Z,6.60
2023-12-23T18:03:29.776Z,6.60
2023-12-23T18:05:56.984Z,6.60
2023-12-23T18:08:24.122Z,6.70
2023-12-23T18:10:51.316Z,6.60
2023-12-23T18:13:22.121Z,6.60
2023-12-23T18:15:49.506Z,6.60
2023-12-23T18:18:18.935Z,6.70
2023-12-23T18:20:46.453Z,6.70
2023-12-23T18:23:13.750Z,6.70
2023-12-23T18:25:40.979Z,6.70
2023-12-23T18:28:08.236Z,6.70
2023-12-23T18:30:35.369Z,6.70
2023-12-23T18:33:02.684Z,6.70
2023-12-23T18:35:29.946Z,6.70
2023-12-23T18:37:56.984Z,6.70
2023-12-23T18:40:24.329Z,6.70
2023-12-23T18:42:51.627Z,6.70
2023-12-23T18:45:18.944Z,6.70
2023-12-23T18:47:47.867Z,6.70
2023-12-23T18:50:15.189Z,6.70
2023-12-23T18:52:42.270Z,6.80
2023-12-23T18:55:09.536Z,6.80
2023-12-23T18:57:36.669Z,6.80
2023-12-23T19:00:04.250Z,6.80
2023-12-23T19:02:31.727Z,6.80
2023-12-23T19:05:03.460Z,6.80
2023-12-23T19:07:30.800Z,6.80
2023-12-23T19:09:58.003Z,6.80
2023-12-23T19:12:25.400Z,6.80
2023-12-23T19:14:52.464Z,6.80
2023-12-23T19:17:19.709Z,6.80
2023-12-23T19:19:46.931Z,6.80
2023-12-23T19:22:14.307Z,6.80
2023-12-23T19:24:41.379Z,6.80
2023-12-23T19:27:08.437Z,6.80
2023-12-23T19:29:39.369Z,6.80
2023-12-23T19:32:06.920Z,6.80
2023-12-23T19:34:34.142Z,6.80
2023-12-23T19:37:01.184Z,6.80
2023-12-23T19:39:28.256Z,6.80
2023-12-23T19:41:55.561Z,6.80
2023-12-23T19:44:23.329Z,6.90
2023-12-23T19:46:50.688Z,6.80
2023-12-23T19:49:18.370Z,6.80
2023-12-23T19:51:45.497Z,6.80
2023-12-23T19:54:12.641Z,6.80
2023-12-23T19:56:39.915Z,6.80
2023-12-23T19:59:08.328Z,6.80
2023-12-23T20:01:35.458Z,6.80
2023-12-23T20:04:03.219Z,6.80
2023-12-23T20:06:30.444Z,6.80
2023-12-23T20:08:58.326Z,6.80
2023-12-23T20:11:26.672Z,6.80
2023-12-23T20:13:54.533Z,6.80
2023-12-23T20:16:25.811Z,6.80
2023-12-23T20:18:53.807Z,6.80
2023-12-23T20:21:21.749Z,6.80
2023-12-23T20:23:50.082Z,6.80
2023-12-23T20:26:17.203Z,6.80
2023-12-23T20:28:45.630Z,6.90
2023-12-23T20:31:13.133Z,6.90
2023-12-23T20:33:40.384Z,6.90
2023-12-23T20:36:07.794Z,6.90
2023-12-23T20:38:35.160Z,6.90
2023-12-23T20:41:02.430Z,6.90
2023-12-23T20:43:30.802Z,6.90
2023-12-23T20:45:57.919Z,6.90
2023-12-23T20:48:25.283Z,6.90
2023-12-23T20:50:54.938Z,6.90
2023-12-23T20:53:22.975Z,6.90
2023-12-23T20:55:50.117Z,6.90
2023-12-23T20:58:17.233Z,7.00
2023-12-23T21:00:44.494Z,7.00
2023-12-23T21:03:11.936Z,7.00
2023-12-23T21:05:39.153Z,7.00
2023-12-23T21:08:06.854Z,6.90
2023-12-23T21:10:37.227Z,7.00
2023-12-23T21:13:04.724Z,7.00
2023-12-23T21:15:31.829Z,7.00
2023-12-23T21:17:59.276Z,7.00
2023-12-23T21:20:26.532Z,7.00
2023-12-23T21:22:56.695Z,7.00
2023-12-23T21:25:23.810Z,7.10
2023-12-23T21:27:50.869Z,7.10
2023-12-23T21:30:18.068Z,7.10
2023-12-23T21:32:45.428Z,7.10
2023-12-23T21:35:12.931Z,7.20
2023-12-23T21:37:39.992Z,7.20
2023-12-23T21:40:07.792Z,7.20
2023-12-23T21:42:35.192Z,7.10
2023-12-23T21:45:02.405Z,7.20
2023-12-23T21:47:29.753Z,7.20
2023-12-23T21:49:56.994Z,7.20
2023-12-23T21:52:26.205Z,7.20
2023-12-23T21:54:53.819Z,7.20
2023-12-23T21:57:24.556Z,7.30
2023-12-23T21:59:52.175Z,7.30
2023-12-23T22:02:24.190Z,7.30
2023-12-23T22:04:51.507Z,7.20
2023-12-23T22:07:18.763Z,7.20
2023-12-23T22:09:45.864Z,7.20
2023-12-23T22:12:13.358Z,7.30
2023-12-23T22:14:40.881Z,7.30
2023-12-23T22:17:08.057Z,7.30
2023-12-23T22:19:36.802Z,7.30
2023-12-23T22:22:04.084Z,7.30
2023-12-23T22:24:32.636Z,7.30
2023-12-23T22:26:59.963Z,7.30
2023-12-23T22:29:27.548Z,7.30
2023-12-23T22:31:54.782Z,7.30
2023-12-23T22:34:23.481Z,7.30
2023-12-23T22:36:56.795Z,7.30
2023-12-23T22:39:24.473Z,7.30
2023-12-23T22:41:52.223Z,7.30
2023-12-23T22:44:21.855Z,7.30
2023-12-23T22:46:49.227Z,7.40
2023-12-23T22:49:16.662Z,7.40
2023-12-23T22:51:43.904Z,7.40
2023-12-23T22:54:12.864Z,7.40
2023-12-23T22:56:43.659Z,7.40
2023-12-23T22:59:11.932Z,7.30
2023-12-23T23:01:42.187Z,7.30
2023-12-23T23:04:09.373Z,7.30
2023-12-23T23:06:36.903Z,7.30
2023-12-23T23:09:04.069Z,7.30
2023-12-23T23:11:32.548Z,7.30
2023-12-23T23:14:05.905Z,7.30
2023-12-23T23:16:35.147Z,7.20
2023-12-23T23:19:08.600Z,7.30
2023-12-23T23:21:38.131Z,7.30
2023-12-23T23:24:05.643Z,7.30
2023-12-23T23:26:33.010Z,7.30
2023-12-23T23:29:03.967Z,7.30
2023-12-23T23:31:32.465Z,7.20
2023-12-23T23:33:59.667Z,7.30
2023-12-23T23:36:29.703Z,7.30
2023-12-23T23:38:59.324Z,7.30
2023-12-23T23:41:26.682Z,7.30
2023-12-23T23:43:54.867Z,7.30
2023-12-23T23:46:22.570Z,7.30
2023-12-23T23:48:50.373Z,7.30
2023-12-23T23:51:20.023Z,7.30
2023-12-23T23:53:51.197Z,7.30
2023-12-23T23:56:20.553Z,7.20
2023-12-23T23:58:52.973Z,7.20
